« Back
NWS Peachtree City, Ga » Text Product » AHN Terminal Aerodrome Forecast


Printer-friendly Version
Current Version              Previous Versions:   1  2  3  4  5  6  7  8  9  

Terminal Aerodrome Forecast

373
FTUS42 KFFC 252332
TAFAHN
TAF
KAHN 252332Z 2600/2624 19005KT P6SM SCT120
     FM260300 18005KT P6SM OVC045
     FM260600 21004KT P6SM -RA OVC025
     FM260900 24004KT P6SM -RA SCT007 OVC015
     FM261500 31012G20KT P6SM BKN025
     FM261800 30014G24KT P6SM BKN050=



USA.gov is the U.S. government's official web portal to all federal, state and local government web resources and services.